Time;durP1;ratioP1;P1;durP2;ratioP2;P2;SDS_P1;SDS_P2;PMS_P1;PMS_P2;Temp;Humidity;BMP_temperature;BMP_pressure;BME280_temperature;BME280_humidity;BME280_pressure;Samples;Min_cycle;Max_cycle;Signal;HPM_P1;HPM_P2
2024/03/31 00:00:54;;;;;;;28.23;4.47;;;8.60;99.90;;;;;;2031170;29;20227;-71
2024/03/31 00:01:55;;;;;;;18.13;3.95;;;8.60;99.90;;;;;;2022255;29;20227;-71
2024/03/31 00:02:56;;;;;;;23.70;3.80;;;8.60;99.90;;;;;;2019346;29;20225;-72
2024/03/31 00:03:57;;;;;;;16.25;4.72;;;8.70;99.90;;;;;;2032703;29;20219;-69
2024/03/31 00:04:57;;;;;;;25.30;3.23;;;8.70;99.90;;;;;;2038975;29;20227;-69
2024/03/31 00:05:58;;;;;;;17.50;3.97;;;8.70;99.90;;;;;;2029720;29;20225;-70
2024/03/31 00:06:59;;;;;;;16.97;3.67;;;8.70;99.90;;;;;;2023395;29;20323;-69
2024/03/31 00:07:59;;;;;;;15.37;3.80;;;8.70;99.90;;;;;;2023657;29;20249;-69
2024/03/31 00:09:00;;;;;;;13.47;3.53;;;8.70;99.90;;;;;;2023013;29;21163;-70
2024/03/31 00:10:01;;;;;;;19.30;4.20;;;8.70;99.90;;;;;;2021600;29;20263;-69
2024/03/31 00:11:06;;;;;;;18.00;3.75;;;8.80;99.90;;;;;;2029921;29;20200;-68
2024/03/31 00:12:07;;;;;;;22.52;4.20;;;8.70;99.90;;;;;;2036521;29;20263;-70
2024/03/31 00:13:08;;;;;;;22.90;4.57;;;8.80;99.90;;;;;;2030675;29;20656;-70
2024/03/31 00:14:08;;;;;;;13.43;3.17;;;8.80;99.90;;;;;;2030053;29;20287;-68
2024/03/31 00:15:09;;;;;;;22.03;4.00;;;8.80;99.90;;;;;;2037186;29;20804;-68
2024/03/31 00:16:10;;;;;;;16.17;3.63;;;8.80;99.90;;;;;;2030195;29;20191;-66
2024/03/31 00:17:11;;;;;;;18.30;3.20;;;8.80;99.90;;;;;;2022097;29;20199;-68
2024/03/31 00:18:11;;;;;;;19.10;3.67;;;8.80;99.90;;;;;;2038099;29;20239;-67
2024/03/31 00:19:12;;;;;;;15.67;3.23;;;8.80;99.90;;;;;;2038978;29;20196;-68
2024/03/31 00:20:13;;;;;;;16.57;4.30;;;8.80;99.90;;;;;;2030662;29;20181;-67
2024/03/31 00:21:13;;;;;;;16.57;3.10;;;8.80;99.90;;;;;;2030613;29;20200;-68
2024/03/31 00:22:15;;;;;;;11.43;3.17;;;8.80;99.90;;;;;;2029631;29;20579;-70
2024/03/31 00:23:16;;;;;;;20.23;4.57;;;8.80;99.90;;;;;;2030251;29;20293;-69
2024/03/31 00:24:16;;;;;;;17.67;3.17;;;8.70;99.90;;;;;;2030190;29;20240;-70
2024/03/31 00:25:17;;;;;;;13.07;2.93;;;8.70;99.90;;;;;;2025287;29;20281;-69
2024/03/31 00:26:18;;;;;;;20.17;4.17;;;8.70;99.90;;;;;;2026600;29;20199;-69
2024/03/31 00:27:18;;;;;;;23.17;4.17;;;8.70;99.90;;;;;;2030745;29;20201;-69
2024/03/31 00:28:19;;;;;;;18.43;3.33;;;8.70;99.90;;;;;;2039163;29;20188;-69
2024/03/31 00:29:20;;;;;;;11.73;3.97;;;8.70;99.90;;;;;;2035911;29;20184;-68
2024/03/31 00:30:21;;;;;;;21.63;4.32;;;8.70;99.90;;;;;;2037304;29;21572;-69
2024/03/31 00:31:24;;;;;;;13.13;3.42;;;8.70;99.90;;;;;;2038136;29;20324;-69
2024/03/31 00:32:24;;;;;;;13.30;3.47;;;8.70;99.90;;;;;;2029689;29;20233;-68
2024/03/31 00:33:25;;;;;;;25.13;4.37;;;8.70;99.90;;;;;;2030586;29;20237;-69
2024/03/31 00:34:26;;;;;;;15.88;3.38;;;8.70;99.90;;;;;;2022626;29;20741;-68
2024/03/31 00:35:27;;;;;;;21.10;4.43;;;8.70;99.90;;;;;;2022442;29;20238;-69
2024/03/31 00:36:27;;;;;;;18.27;3.83;;;8.80;99.90;;;;;;2030228;29;20241;-69
2024/03/31 00:37:28;;;;;;;22.73;4.23;;;8.70;99.90;;;;;;2023052;29;20311;-69
2024/03/31 00:38:28;;;;;;;20.07;3.37;;;8.70;99.90;;;;;;2010704;29;20241;-69
2024/03/31 00:39:29;;;;;;;18.53;4.13;;;8.80;99.90;;;;;;2015533;29;20240;-69
2024/03/31 00:40:30;;;;;;;23.57;3.97;;;8.80;99.90;;;;;;2034517;29;20238;-70
2024/03/31 00:41:31;;;;;;;16.00;3.73;;;8.80;99.90;;;;;;2038044;29;20238;-69
2024/03/31 00:42:31;;;;;;;12.77;3.00;;;8.80;99.90;;;;;;2030320;29;20323;-68
2024/03/31 00:43:32;;;;;;;15.47;4.23;;;8.80;99.90;;;;;;2031123;29;20255;-68
2024/03/31 00:44:33;;;;;;;19.13;3.63;;;8.70;99.90;;;;;;2014463;29;20890;-69
2024/03/31 00:45:33;;;;;;;18.43;3.67;;;8.80;99.90;;;;;;2014707;29;20238;-70
2024/03/31 00:46:34;;;;;;;19.73;3.27;;;8.70;99.90;;;;;;2022688;29;20233;-68
2024/03/31 00:47:35;;;;;;;17.33;3.90;;;8.70;99.90;;;;;;2014444;29;20725;-66
2024/03/31 00:48:36;;;;;;;18.73;4.43;;;8.80;99.90;;;;;;2022557;29;20273;-69
2024/03/31 00:49:37;;;;;;;15.88;3.88;;;8.60;99.90;;;;;;2022443;29;20239;-69
2024/03/31 00:50:38;;;;;;;17.17;3.40;;;8.70;99.90;;;;;;2022632;29;20617;-70
2024/03/31 00:51:39;;;;;;;18.17;4.28;;;8.60;99.90;;;;;;2031289;29;20312;-69
2024/03/31 00:52:39;;;;;;;14.10;3.27;;;8.60;99.90;;;;;;2030333;29;20220;-70
2024/03/31 00:53:40;;;;;;;10.70;3.53;;;8.50;99.90;;;;;;2022829;29;20256;-69
2024/03/31 00:54:44;;;;;;;18.67;2.87;;;8.50;99.90;;;;;;2022301;29;20324;-69
2024/03/31 00:55:45;;;;;;;15.13;3.00;;;8.40;99.90;;;;;;2022243;29;20230;-69
2024/03/31 00:56:46;;;;;;;17.30;2.87;;;8.40;99.90;;;;;;2022491;29;20285;-69
2024/03/31 00:57:46;;;;;;;13.40;3.70;;;8.40;99.90;;;;;;2026314;29;20258;-68
2024/03/31 00:58:47;;;;;;;12.27;3.40;;;8.40;99.90;;;;;;2014760;29;20221;-70
2024/03/31 00:59:47;;;;;;;14.27;4.07;;;8.30;99.90;;;;;;2022502;29;20700;-69
2024/03/31 01:00:48;;;;;;;14.13;3.20;;;8.30;99.90;;;;;;2038115;29;20223;-69
2024/03/31 01:01:49;;;;;;;18.13;4.03;;;8.30;99.90;;;;;;2030863;29;20236;-69
2024/03/31 01:02:49;;;;;;;16.13;4.37;;;8.30;99.90;;;;;;2014883;29;20217;-69
2024/03/31 01:03:50;;;;;;;20.23;3.50;;;8.40;99.90;;;;;;2007133;29;20962;-69
2024/03/31 01:04:51;;;;;;;14.40;4.00;;;8.30;99.90;;;;;;2022522;29;20239;-69
2024/03/31 01:05:52;;;;;;;17.93;3.40;;;8.30;99.90;;;;;;2030621;29;20236;-70
2024/03/31 01:06:53;;;;;;;14.40;3.15;;;8.30;99.90;;;;;;2022484;29;20253;-69
2024/03/31 01:07:54;;;;;;;13.33;3.83;;;8.30;99.90;;;;;;2015253;29;20732;-69
2024/03/31 01:08:54;;;;;;;10.13;3.07;;;8.20;99.90;;;;;;2030846;29;20354;-70
2024/03/31 01:09:55;;;;;;;13.27;3.63;;;8.20;99.90;;;;;;2038149;29;20534;-69
2024/03/31 01:10:56;;;;;;;12.90;3.17;;;8.20;99.90;;;;;;2022412;29;20232;-69
2024/03/31 01:11:57;;;;;;;15.37;3.80;;;8.20;99.90;;;;;;2022413;29;20241;-68
2024/03/31 01:12:58;;;;;;;12.95;3.30;;;8.20;99.90;;;;;;2021997;29;20237;-69
2024/03/31 01:14:00;;;;;;;23.10;3.60;;;8.20;99.90;;;;;;2022332;29;20213;-69
2024/03/31 01:15:02;;;;;;;21.65;3.40;;;8.20;99.90;;;;;;2036855;29;20225;-69
2024/03/31 01:16:03;;;;;;;14.13;3.40;;;8.10;99.90;;;;;;2027721;29;20189;-68
2024/03/31 01:17:04;;;;;;;13.32;3.13;;;8.10;99.90;;;;;;2014561;29;20173;-68
2024/03/31 01:18:05;;;;;;;22.10;3.53;;;8.10;99.90;;;;;;2022401;29;20629;-68
2024/03/31 01:19:05;;;;;;;14.23;3.63;;;8.00;99.90;;;;;;2030518;29;20192;-69
2024/03/31 01:20:06;;;;;;;17.17;3.63;;;8.00;99.90;;;;;;2022160;29;20193;-69
2024/03/31 01:21:08;;;;;;;13.57;3.33;;;8.00;99.90;;;;;;2022161;29;20181;-69
2024/03/31 01:22:09;;;;;;;13.23;3.72;;;7.90;99.90;;;;;;2021669;29;20187;-69
2024/03/31 01:23:12;;;;;;;12.15;3.33;;;7.90;99.90;;;;;;2023237;29;20206;-69
2024/03/31 01:24:12;;;;;;;11.20;3.25;;;7.90;99.90;;;;;;2022259;29;20257;-70
2024/03/31 01:25:13;;;;;;;12.27;3.70;;;7.80;99.90;;;;;;2014643;29;20227;-69
2024/03/31 01:26:14;;;;;;;13.60;3.30;;;7.80;99.90;;;;;;2014962;29;20192;-69
2024/03/31 01:27:15;;;;;;;9.17;2.87;;;7.80;99.90;;;;;;2015511;29;20277;-70
2024/03/31 01:28:15;;;;;;;15.77;3.73;;;7.70;99.90;;;;;;2029699;29;20209;-70
2024/03/31 01:29:16;;;;;;;18.57;4.00;;;7.60;99.90;;;;;;2030242;29;20329;-69
2024/03/31 01:30:17;;;;;;;10.87;3.47;;;7.60;99.90;;;;;;2030495;29;20622;-69
2024/03/31 01:31:17;;;;;;;13.50;3.57;;;7.60;99.90;;;;;;2038466;29;20196;-70
2024/03/31 01:32:18;;;;;;;19.10;3.53;;;7.50;99.90;;;;;;2037749;29;20566;-70
2024/03/31 01:33:19;;;;;;;17.10;3.90;;;7.50;99.90;;;;;;2037404;29;20280;-69
2024/03/31 01:34:20;;;;;;;17.53;3.60;;;7.50;99.90;;;;;;2029868;29;20196;-70
2024/03/31 01:35:20;;;;;;;12.93;3.10;;;7.50;99.90;;;;;;2022377;29;20305;-69
2024/03/31 01:36:21;;;;;;;14.57;3.60;;;7.40;99.90;;;;;;2015429;29;20297;-68
2024/03/31 01:37:22;;;;;;;14.07;3.20;;;7.40;99.90;;;;;;2014555;29;20226;-70
2024/03/31 01:38:22;;;;;;;14.13;3.00;;;7.40;99.90;;;;;;2021822;29;20291;-69
2024/03/31 01:39:23;;;;;;;11.80;3.40;;;7.30;99.90;;;;;;2022415;29;20231;-70
2024/03/31 01:40:24;;;;;;;16.50;3.43;;;7.30;99.90;;;;;;2029890;29;20228;-69
2024/03/31 01:41:24;;;;;;;12.43;3.00;;;7.30;99.90;;;;;;2030686;29;20265;-69
2024/03/31 01:42:26;;;;;;;14.30;3.40;;;7.30;99.90;;;;;;2030143;29;20244;-69
2024/03/31 01:43:26;;;;;;;18.65;3.30;;;7.20;99.90;;;;;;2029718;29;20236;-70
2024/03/31 01:44:27;;;;;;;13.40;3.87;;;7.20;99.90;;;;;;2022170;29;20244;-69
2024/03/31 01:45:28;;;;;;;13.53;3.63;;;7.10;99.90;;;;;;2022052;29;20765;-69
2024/03/31 01:46:28;;;;;;;15.13;3.00;;;7.10;99.90;;;;;;2036345;29;20671;-70
2024/03/31 01:47:29;;;;;;;15.17;3.60;;;7.10;99.90;;;;;;2037887;29;20326;-69
2024/03/31 01:48:30;;;;;;;9.97;3.30;;;7.00;99.90;;;;;;2022872;29;20320;-69
2024/03/31 01:49:30;;;;;;;15.37;3.57;;;7.00;99.90;;;;;;2022669;29;20265;-70
2024/03/31 01:50:31;;;;;;;16.37;3.27;;;6.90;99.90;;;;;;2028991;29;20324;-69
2024/03/31 01:51:32;;;;;;;16.03;3.93;;;6.90;99.90;;;;;;2030852;29;20721;-69
2024/03/31 01:52:32;;;;;;;14.50;4.07;;;6.90;99.90;;;;;;2029879;29;20330;-69
2024/03/31 01:53:33;;;;;;;19.67;4.67;;;6.80;99.90;;;;;;2030571;29;20603;-68
2024/03/31 01:54:37;;;;;;;16.97;4.07;;;6.70;99.90;;;;;;2022155;29;20221;-69
2024/03/31 01:55:38;;;;;;;21.20;4.00;;;6.70;99.90;;;;;;2021140;29;20236;-69
2024/03/31 01:56:38;;;;;;;13.47;3.37;;;6.60;99.90;;;;;;2022254;29;20226;-70
2024/03/31 01:57:39;;;;;;;14.47;3.70;;;6.60;99.90;;;;;;2030556;29;20372;-70
2024/03/31 01:58:40;;;;;;;12.33;3.53;;;6.60;99.90;;;;;;2022439;29;20678;-69
2024/03/31 01:59:40;;;;;;;20.00;3.87;;;6.50;99.90;;;;;;2021748;29;20233;-69
2024/03/31 02:00:42;;;;;;;16.93;4.30;;;6.50;99.90;;;;;;2023050;29;20508;-68
2024/03/31 02:01:43;;;;;;;13.95;3.28;;;6.50;99.90;;;;;;2013136;29;20675;-69
2024/03/31 02:02:43;;;;;;;19.83;4.20;;;6.50;99.90;;;;;;2023490;29;20304;-68
2024/03/31 02:03:44;;;;;;;13.93;4.03;;;6.50;99.90;;;;;;2021412;29;20664;-69
2024/03/31 02:04:45;;;;;;;16.80;4.03;;;6.40;99.90;;;;;;2029721;29;20271;-70
2024/03/31 02:05:45;;;;;;;13.03;4.07;;;6.40;99.90;;;;;;2037415;29;20315;-69
2024/03/31 02:06:46;;;;;;;17.53;4.33;;;6.40;99.90;;;;;;2038618;29;20624;-70
2024/03/31 02:07:46;;;;;;;15.03;4.00;;;6.40;99.90;;;;;;2022615;29;20218;-69
2024/03/31 02:08:49;;;;;;;17.57;4.80;;;6.40;99.90;;;;;;2020713;29;20246;-69
2024/03/31 02:09:49;;;;;;;18.50;3.78;;;6.30;99.90;;;;;;2029215;29;20320;-69
2024/03/31 02:10:50;;;;;;;12.73;3.40;;;6.30;99.90;;;;;;2022845;29;20586;-69
2024/03/31 02:11:51;;;;;;;16.07;3.77;;;6.40;99.90;;;;;;2021841;29;20226;-69
2024/03/31 02:12:52;;;;;;;13.18;3.50;;;6.40;99.90;;;;;;2013469;29;20242;-69
2024/03/31 02:13:52;;;;;;;15.90;4.03;;;6.30;99.90;;;;;;2013123;29;20226;-70
2024/03/31 02:14:53;;;;;;;17.23;3.87;;;6.30;99.90;;;;;;2036024;29;20231;-69
2024/03/31 02:15:54;;;;;;;11.93;3.97;;;6.30;99.90;;;;;;2029026;29;20220;-69
2024/03/31 02:16:56;;;;;;;13.50;3.65;;;6.30;99.90;;;;;;2021840;29;20274;-70
2024/03/31 02:17:56;;;;;;;15.90;4.13;;;6.30;99.90;;;;;;2025931;29;20313;-70
2024/03/31 02:18:57;;;;;;;15.03;3.70;;;6.30;99.90;;;;;;2024283;29;20226;-69
2024/03/31 02:19:58;;;;;;;15.83;3.07;;;6.30;99.90;;;;;;2024871;29;20773;-70
2024/03/31 02:20:58;;;;;;;14.30;3.23;;;6.30;99.90;;;;;;2028876;29;20225;-69
2024/03/31 02:21:59;;;;;;;12.80;3.60;;;6.30;99.90;;;;;;2021006;29;20233;-70
2024/03/31 02:23:00;;;;;;;9.27;3.40;;;6.30;99.90;;;;;;2022712;29;20336;-69
2024/03/31 02:24:00;;;;;;;12.43;3.00;;;6.30;99.90;;;;;;2030003;29;20229;-69
2024/03/31 02:25:01;;;;;;;11.87;3.30;;;6.30;99.90;;;;;;2020104;29;20217;-69
2024/03/31 02:26:02;;;;;;;10.50;3.40;;;6.30;99.90;;;;;;2020943;29;20204;-67
2024/03/31 02:27:03;;;;;;;17.53;4.00;;;6.20;99.90;;;;;;2033810;29;20184;-69
2024/03/31 02:28:04;;;;;;;16.95;3.22;;;6.20;99.90;;;;;;2027306;29;20199;-69
2024/03/31 02:29:04;;;;;;;13.27;3.97;;;6.20;99.90;;;;;;2028436;29;20269;-69
2024/03/31 02:30:06;;;;;;;8.97;3.33;;;6.20;99.90;;;;;;2022467;29;20186;-69
2024/03/31 02:31:06;;;;;;;13.80;3.58;;;6.20;99.90;;;;;;2012226;29;20182;-69
2024/03/31 02:32:07;;;;;;;10.43;3.67;;;6.20;99.90;;;;;;2021425;29;20268;-69
2024/03/31 02:33:08;;;;;;;16.00;4.63;;;6.20;99.90;;;;;;2020689;29;20218;-69
2024/03/31 02:34:08;;;;;;;8.57;3.47;;;6.20;99.90;;;;;;2019158;29;20194;-70
2024/03/31 02:35:09;;;;;;;16.73;4.40;;;6.20;99.90;;;;;;2029059;29;20244;-70
2024/03/31 02:36:10;;;;;;;17.47;4.23;;;6.20;99.90;;;;;;2028926;29;20572;-70
2024/03/31 02:37:11;;;;;;;15.73;3.40;;;6.20;99.90;;;;;;2025915;29;20248;-69
2024/03/31 02:38:11;;;;;;;15.87;3.90;;;6.20;99.90;;;;;;2022463;29;20193;-69
2024/03/31 02:39:12;;;;;;;12.93;4.13;;;6.20;99.90;;;;;;2022308;29;20642;-68
2024/03/31 02:40:13;;;;;;;12.50;3.53;;;6.20;99.90;;;;;;2020156;29;20276;-69
2024/03/31 02:41:13;;;;;;;12.50;3.73;;;6.20;99.90;;;;;;2028393;29;20257;-70
2024/03/31 02:42:14;;;;;;;19.47;3.87;;;6.10;99.90;;;;;;2028511;29;20468;-69
2024/03/31 02:43:15;;;;;;;11.03;3.73;;;6.10;99.90;;;;;;2020762;29;20572;-69
2024/03/31 02:44:16;;;;;;;23.40;4.00;;;6.00;99.90;;;;;;2020363;29;20244;-69
2024/03/31 02:45:16;;;;;;;30.47;4.63;;;6.00;99.90;;;;;;2021239;29;20198;-69
2024/03/31 02:46:17;;;;;;;46.83;5.40;;;6.00;99.90;;;;;;2021798;29;20285;-69
2024/03/31 02:47:18;;;;;;;32.83;5.20;;;6.00;99.90;;;;;;2030064;29;20276;-69
2024/03/31 02:48:18;;;;;;;211.23;13.87;;;6.10;99.90;;;;;;2036320;29;20192;-69
2024/03/31 02:49:19;;;;;;;20.27;4.37;;;6.00;99.90;;;;;;2037733;29;20663;-69
2024/03/31 02:50:20;;;;;;;145.83;13.20;;;6.10;99.90;;;;;;2029847;29;20208;-70
2024/03/31 02:51:20;;;;;;;109.50;9.77;;;6.10;99.90;;;;;;2036783;29;20322;-68
2024/03/31 02:52:21;;;;;;;160.50;13.90;;;6.10;99.90;;;;;;2038033;29;20271;-70
2024/03/31 02:53:22;;;;;;;215.37;16.53;;;6.20;99.90;;;;;;2037904;29;20252;-70
2024/03/31 02:54:22;;;;;;;129.43;10.53;;;6.20;99.90;;;;;;2030010;29;20271;-67
2024/03/31 02:55:23;;;;;;;81.77;9.13;;;6.10;99.90;;;;;;2022127;29;20677;-70
2024/03/31 02:56:24;;;;;;;52.53;7.13;;;6.20;99.90;;;;;;2021846;29;20272;-70
2024/03/31 02:57:24;;;;;;;142.40;12.47;;;6.20;99.90;;;;;;2015707;29;20257;-69
2024/03/31 02:58:25;;;;;;;157.30;13.27;;;6.20;99.90;;;;;;2019379;29;20272;-70
2024/03/31 02:59:26;;;;;;;261.00;15.17;;;6.20;99.90;;;;;;2029776;29;20233;-70
2024/03/31 03:00:26;;;;;;;124.07;11.13;;;6.20;99.90;;;;;;2014475;29;20739;-69
2024/03/31 03:01:27;;;;;;;261.23;16.67;;;6.30;99.90;;;;;;2007126;29;20246;-69
2024/03/31 03:02:27;;;;;;;204.70;14.10;;;6.30;99.90;;;;;;2015274;29;20238;-69
2024/03/31 03:03:28;;;;;;;10.50;3.13;;;6.30;99.90;;;;;;2021840;29;20302;-69
2024/03/31 03:04:30;;;;;;;146.87;10.20;;;6.30;99.90;;;;;;2022148;29;20614;-69
2024/03/31 03:05:30;;;;;;;156.98;12.65;;;6.30;99.90;;;;;;2029884;29;20267;-68
2024/03/31 03:06:31;;;;;;;229.23;17.17;;;6.30;99.90;;;;;;2030860;29;20725;-69
2024/03/31 03:07:32;;;;;;;90.30;10.07;;;6.30;99.90;;;;;;2022810;29;20233;-69
2024/03/31 03:08:32;;;;;;;52.53;6.03;;;6.30;99.90;;;;;;2028499;29;20236;-68
2024/03/31 03:09:33;;;;;;;30.03;5.57;;;6.30;99.90;;;;;;2021527;29;20240;-69
2024/03/31 03:10:34;;;;;;;85.40;8.47;;;6.20;99.90;;;;;;2022025;29;20244;-69
2024/03/31 03:11:35;;;;;;;84.20;8.13;;;6.30;99.90;;;;;;2028797;29;20242;-69
2024/03/31 03:12:35;;;;;;;90.07;8.60;;;6.30;99.90;;;;;;2023490;29;20619;-69
2024/03/31 03:13:36;;;;;;;91.53;8.37;;;6.20;99.90;;;;;;2022991;29;20633;-70
2024/03/31 03:14:36;;;;;;;59.03;8.20;;;6.10;99.90;;;;;;2029978;29;20225;-68
2024/03/31 03:15:37;;;;;;;47.03;8.27;;;6.00;99.90;;;;;;2030915;29;20582;-69
2024/03/31 03:16:37;;;;;;;46.00;7.53;;;6.00;99.90;;;;;;2029849;29;20248;-69
2024/03/31 03:17:38;;;;;;;56.30;9.13;;;6.00;99.90;;;;;;2029472;29;20786;-70
2024/03/31 03:18:39;;;;;;;40.30;6.43;;;6.00;99.90;;;;;;2031388;29;20236;-69
2024/03/31 03:19:39;;;;;;;109.73;11.37;;;6.10;99.90;;;;;;2029926;29;20260;-69
2024/03/31 03:20:40;;;;;;;34.63;6.53;;;6.10;99.90;;;;;;2030486;29;20232;-69
2024/03/31 03:21:40;;;;;;;43.90;7.10;;;6.10;99.90;;;;;;2029907;29;20248;-70
2024/03/31 03:22:41;;;;;;;35.43;6.07;;;6.20;99.90;;;;;;2031653;29;20260;-69
2024/03/31 03:23:41;;;;;;;65.80;8.47;;;6.20;99.90;;;;;;2022100;29;20648;-69
2024/03/31 03:24:42;;;;;;;58.33;6.80;;;6.20;99.90;;;;;;2022277;29;21005;-69
2024/03/31 03:25:42;;;;;;;16.43;4.23;;;6.20;99.90;;;;;;2030422;29;20236;-70
2024/03/31 03:26:45;;;;;;;12.73;4.30;;;6.20;99.90;;;;;;2031154;29;20705;-69
2024/03/31 03:27:46;;;;;;;28.80;5.90;;;6.20;99.90;;;;;;2030784;29;20221;-70
2024/03/31 03:28:46;;;;;;;18.97;4.60;;;6.20;99.90;;;;;;2023395;29;20227;-69
2024/03/31 03:29:47;;;;;;;10.50;3.70;;;6.20;99.90;;;;;;2029326;29;20229;-69
2024/03/31 03:30:48;;;;;;;9.90;4.00;;;6.20;99.90;;;;;;2038024;29;20216;-70
2024/03/31 03:31:48;;;;;;;8.93;4.57;;;6.20;99.90;;;;;;2032089;29;20224;-69
2024/03/31 03:32:52;;;;;;;17.77;4.77;;;6.20;99.90;;;;;;2030429;29;20245;-68
2024/03/31 03:33:53;;;;;;;30.10;6.93;;;6.10;99.90;;;;;;2030866;29;20738;-69
2024/03/31 03:34:53;;;;;;;22.27;4.97;;;6.00;99.90;;;;;;2031876;29;20300;-69
2024/03/31 03:35:54;;;;;;;35.97;6.20;;;6.00;99.90;;;;;;2029210;29;20232;-69
2024/03/31 03:36:54;;;;;;;31.30;5.27;;;6.00;99.90;;;;;;2031457;29;20229;-69
2024/03/31 03:37:55;;;;;;;19.00;4.50;;;6.00;99.90;;;;;;2030894;29;20225;-68
2024/03/31 03:38:56;;;;;;;49.30;6.85;;;6.00;99.90;;;;;;2030101;29;20280;-70
2024/03/31 03:39:57;;;;;;;38.07;6.67;;;6.00;99.90;;;;;;2029972;29;20221;-69
2024/03/31 03:40:58;;;;;;;99.80;12.73;;;6.10;99.90;;;;;;2032096;29;20224;-69
2024/03/31 03:41:59;;;;;;;36.70;6.32;;;6.10;99.90;;;;;;2032189;29;20247;-69
2024/03/31 03:42:59;;;;;;;42.43;6.53;;;6.10;99.90;;;;;;2030456;29;20235;-69
2024/03/31 03:44:00;;;;;;;91.67;10.77;;;6.10;99.90;;;;;;2029790;29;20236;-69
2024/03/31 03:45:00;;;;;;;39.60;7.37;;;6.10;99.90;;;;;;2029960;29;20232;-70
2024/03/31 03:46:02;;;;;;;46.03;6.70;;;6.10;99.90;;;;;;2030350;29;20677;-69
2024/03/31 03:47:02;;;;;;;52.25;8.20;;;6.00;99.90;;;;;;2039120;29;20204;-69
2024/03/31 03:48:04;;;;;;;58.07;7.10;;;6.00;99.90;;;;;;2029620;29;20666;-69
2024/03/31 03:49:04;;;;;;;87.63;8.80;;;6.00;99.90;;;;;;2021900;29;20193;-69
2024/03/31 03:50:05;;;;;;;56.57;8.03;;;6.00;99.90;;;;;;2030213;29;20189;-68
2024/03/31 03:51:06;;;;;;;29.00;5.47;;;6.00;99.90;;;;;;2030362;29;20189;-68
2024/03/31 03:52:06;;;;;;;15.63;5.57;;;5.90;99.90;;;;;;2029318;29;20192;-70
2024/03/31 03:53:07;;;;;;;22.60;3.63;;;5.90;99.90;;;;;;2029809;29;20291;-69
2024/03/31 03:54:08;;;;;;;13.25;3.22;;;5.80;99.90;;;;;;2029972;29;20248;-69
2024/03/31 03:55:08;;;;;;;13.43;3.93;;;5.90;99.90;;;;;;2031480;29;20264;-70
2024/03/31 03:56:09;;;;;;;28.47;5.37;;;5.90;99.90;;;;;;2029225;29;20186;-69
2024/03/31 03:57:10;;;;;;;25.23;4.60;;;5.90;99.90;;;;;;2029834;29;20186;-68
2024/03/31 03:58:11;;;;;;;16.10;4.18;;;5.90;99.90;;;;;;2031439;29;20540;-69
2024/03/31 03:59:12;;;;;;;13.80;4.77;;;5.80;99.90;;;;;;2029797;29;20193;-69
2024/03/31 04:00:13;;;;;;;19.73;5.10;;;5.80;99.90;;;;;;2030604;29;20712;-70
2024/03/31 04:01:13;;;;;;;7.40;3.63;;;5.70;99.90;;;;;;2028582;29;20181;-68
2024/03/31 04:02:14;;;;;;;9.37;3.80;;;5.70;99.90;;;;;;2025875;29;20239;-69
2024/03/31 04:03:14;;;;;;;7.20;3.60;;;5.70;99.90;;;;;;2030412;29;20177;-69
2024/03/31 04:04:15;;;;;;;6.43;3.07;;;5.70;99.90;;;;;;2030765;29;20691;-69
2024/03/31 04:05:16;;;;;;;6.03;3.13;;;5.80;99.90;;;;;;2031690;29;20236;-69
2024/03/31 04:06:16;;;;;;;5.27;3.20;;;5.80;99.90;;;;;;2027210;29;20193;-70
2024/03/31 04:07:17;;;;;;;7.07;3.83;;;5.80;99.90;;;;;;2026421;29;20181;-70
2024/03/31 04:08:18;;;;;;;6.40;3.73;;;5.80;99.90;;;;;;2031714;29;20220;-69
2024/03/31 04:09:18;;;;;;;8.07;3.83;;;5.70;99.90;;;;;;2030178;29;20204;-69
2024/03/31 04:10:19;;;;;;;9.53;3.57;;;5.80;99.90;;;;;;2027392;29;20233;-69
2024/03/31 04:11:24;;;;;;;9.73;4.10;;;5.80;99.90;;;;;;2025639;29;20186;-69
2024/03/31 04:12:25;;;;;;;8.23;3.83;;;5.80;99.90;;;;;;2029553;29;20228;-70
2024/03/31 04:13:25;;;;;;;10.90;3.67;;;5.70;99.90;;;;;;2029391;29;20264;-69
2024/03/31 04:14:26;;;;;;;10.17;3.30;;;5.70;99.90;;;;;;2029279;29;20243;-69
2024/03/31 04:15:26;;;;;;;11.93;4.73;;;5.70;99.90;;;;;;2029987;29;20287;-69
2024/03/31 04:16:27;;;;;;;14.40;3.63;;;5.70;99.90;;;;;;2030969;29;20240;-69
2024/03/31 04:17:28;;;;;;;25.00;4.78;;;5.70;99.90;;;;;;2022971;29;20281;-70
2024/03/31 04:18:28;;;;;;;11.20;3.30;;;5.70;99.90;;;;;;2031564;29;20294;-69
2024/03/31 04:19:29;;;;;;;17.30;4.37;;;5.70;99.90;;;;;;2029601;29;20395;-69
2024/03/31 04:20:30;;;;;;;52.70;6.77;;;5.70;99.90;;;;;;2030844;29;20319;-68
2024/03/31 04:21:30;;;;;;;58.37;7.47;;;5.70;99.90;;;;;;2030402;29;20240;-69
2024/03/31 04:22:31;;;;;;;40.97;7.03;;;5.70;99.90;;;;;;2030868;29;20287;-69
2024/03/31 04:23:31;;;;;;;28.77;6.33;;;5.70;99.90;;;;;;2031301;29;20233;-69
2024/03/31 04:24:32;;;;;;;20.87;4.63;;;5.70;99.90;;;;;;2029997;29;20240;-69
2024/03/31 04:25:32;;;;;;;9.70;3.30;;;5.60;99.90;;;;;;2029847;29;20236;-69
2024/03/31 04:26:33;;;;;;;41.30;5.30;;;5.60;99.90;;;;;;2030189;29;20283;-69
2024/03/31 04:27:33;;;;;;;13.27;4.17;;;5.60;99.90;;;;;;2030119;29;20260;-70
2024/03/31 04:28:34;;;;;;;16.07;4.13;;;5.50;99.90;;;;;;2030267;29;20292;-69
2024/03/31 04:29:34;;;;;;;40.60;7.10;;;5.50;99.90;;;;;;2028402;29;20275;-69
2024/03/31 04:30:42;;;;;;;38.47;7.63;;;5.50;99.90;;;;;;2029849;29;20242;-69
2024/03/31 04:32:09;;;;;;;32.30;6.93;;;5.50;99.90;;;;;;2030028;29;20243;-69
2024/03/31 04:33:10;;;;;;;21.00;5.15;;;5.60;99.90;;;;;;2026087;29;20312;-70
2024/03/31 04:34:10;;;;;;;24.15;5.70;;;5.50;99.90;;;;;;2031052;29;20199;-69
2024/03/31 04:35:11;;;;;;;20.43;4.73;;;5.50;99.90;;;;;;2022393;29;20597;-69
2024/03/31 04:36:12;;;;;;;25.27;5.50;;;5.50;99.90;;;;;;2029495;29;20246;-70
2024/03/31 04:37:13;;;;;;;23.65;5.30;;;5.50;99.90;;;;;;2037449;29;20244;-69
2024/03/31 04:38:13;;;;;;;15.63;4.43;;;5.60;99.90;;;;;;2031748;29;20280;-69
2024/03/31 04:39:14;;;;;;;12.53;3.93;;;5.50;99.90;;;;;;2032600;29;20245;-69
2024/03/31 04:40:15;;;;;;;12.83;3.63;;;5.50;99.90;;;;;;2031038;29;20281;-69
2024/03/31 04:41:16;;;;;;;13.47;4.50;;;5.50;99.90;;;;;;2027427;29;20185;-69
2024/03/31 04:42:16;;;;;;;14.10;4.15;;;5.50;99.90;;;;;;2028591;29;20177;-69
2024/03/31 04:43:17;;;;;;;11.03;3.80;;;5.50;99.90;;;;;;2029909;29;20228;-69
2024/03/31 04:44:17;;;;;;;11.70;3.70;;;5.50;99.90;;;;;;2024952;29;20195;-69
2024/03/31 04:45:18;;;;;;;13.40;4.30;;;5.50;99.90;;;;;;2024548;29;20197;-68
2024/03/31 04:46:18;;;;;;;7.97;3.93;;;5.40;99.90;;;;;;2028014;29;20615;-69
2024/03/31 04:47:21;;;;;;;12.07;3.97;;;5.50;99.90;;;;;;2025042;29;20189;-69
2024/03/31 04:48:22;;;;;;;9.07;3.97;;;5.50;99.90;;;;;;2024825;29;20245;-70
2024/03/31 04:49:22;;;;;;;12.40;3.80;;;5.50;99.90;;;;;;2029439;29;20233;-69
2024/03/31 04:50:23;;;;;;;14.73;3.77;;;5.50;99.90;;;;;;2028345;29;20236;-70
2024/03/31 04:51:23;;;;;;;8.23;3.40;;;5.50;99.90;;;;;;2028778;29;20258;-69
2024/03/31 04:52:24;;;;;;;4.97;3.17;;;5.60;99.90;;;;;;2030786;29;20260;-69
2024/03/31 04:53:24;;;;;;;11.47;3.30;;;5.60;99.90;;;;;;2027998;29;20284;-69
2024/03/31 04:54:25;;;;;;;9.03;3.17;;;5.60;99.90;;;;;;2029380;29;20732;-69
2024/03/31 04:55:26;;;;;;;9.13;3.33;;;5.60;99.90;;;;;;2028910;29;20770;-70
2024/03/31 04:56:26;;;;;;;7.63;3.40;;;5.60;99.90;;;;;;2030076;29;20236;-68
2024/03/31 04:57:27;;;;;;;3.87;2.30;;;5.60;99.90;;;;;;2028734;29;20333;-69
2024/03/31 04:58:28;;;;;;;9.60;3.30;;;5.70;99.90;;;;;;2029030;29;20233;-69
2024/03/31 04:59:29;;;;;;;8.23;2.83;;;5.70;99.90;;;;;;2030165;29;20288;-69
2024/03/31 05:00:29;;;;;;;8.03;2.53;;;5.60;99.90;;;;;;2031391;29;20783;-69
2024/03/31 05:01:30;;;;;;;6.27;2.50;;;5.60;99.90;;;;;;2029858;29;20239;-69
2024/03/31 05:02:30;;;;;;;5.57;2.43;;;5.60;99.90;;;;;;2029035;29;20228;-68
2024/03/31 05:03:31;;;;;;;6.13;2.63;;;5.60;99.90;;;;;;2029853;29;20237;-69
2024/03/31 05:04:32;;;;;;;7.43;3.00;;;5.60;99.90;;;;;;2031574;29;20229;-69
2024/03/31 05:05:36;;;;;;;7.07;2.90;;;5.60;99.90;;;;;;2030227;29;20240;-70
2024/03/31 05:06:37;;;;;;;6.25;2.80;;;5.50;99.90;;;;;;2029127;29;20240;-69
2024/03/31 05:07:37;;;;;;;7.03;3.33;;;5.50;99.90;;;;;;2030427;29;20243;-70
2024/03/31 05:08:38;;;;;;;5.80;2.90;;;5.50;99.90;;;;;;2029346;29;20247;-69
2024/03/31 05:09:39;;;;;;;8.33;2.47;;;5.50;99.90;;;;;;2029999;29;20229;-69
2024/03/31 05:10:40;;;;;;;6.28;3.00;;;5.50;99.90;;;;;;2029775;29;20251;-69
2024/03/31 05:11:40;;;;;;;4.47;2.17;;;5.50;99.90;;;;;;2028628;29;20701;-69
2024/03/31 05:12:41;;;;;;;6.93;2.50;;;5.50;99.90;;;;;;2030283;29;20236;-69
2024/03/31 05:13:41;;;;;;;8.20;3.00;;;5.50;99.90;;;;;;2030266;29;20267;-69
2024/03/31 05:14:42;;;;;;;6.47;3.23;;;5.50;99.90;;;;;;2030414;29;20322;-69
2024/03/31 05:15:42;;;;;;;7.07;2.90;;;5.50;99.90;;;;;;2029019;29;20305;-69
2024/03/31 05:16:43;;;;;;;8.10;2.33;;;5.50;99.90;;;;;;2026186;29;20624;-69
2024/03/31 05:17:43;;;;;;;5.30;2.20;;;5.60;99.90;;;;;;2028839;29;20240;-69